Wabush, Canada
Current Conditions -  °F | °C
As of 6:00 AM on Sunday 26 Oct 2014 (Local Time) from CYWK Reporting Station
Light Snow Light Snow  
Wind Chill: -5°   Ceiling: 1300
Heat Index: -1°   Visibility: 1mi
Dew Point: -2°   Wind: 8mph
Humidity: 93%   Direction: 100°E
Pressure: 29.54"   Gusts: NA
Location:  52.9°N, 66.87°W
Report Text: CYWK 260900Z 10007KT 1SM -SN OVC013 M01/M02 A2954 RMK SC8 S02 AFT 260100Z SLP027
Loading
Personal Weather Stations






























Interactive Weather Map
Tropical Storm Tracking
New forecast layout! Learn more

10-Day Weather Forecast

Advertisements
Track Severe Weather on mobile